createdAt,value
2018-03-04T00:00:00.646Z,38.23
2018-03-04T00:02:29.329Z,42.33
2018-03-04T00:04:58.074Z,45.30
2018-03-04T00:07:26.800Z,48.80
2018-03-04T00:09:55.595Z,49.43
2018-03-04T00:12:24.281Z,52.07
2018-03-04T00:14:52.967Z,50.90
2018-03-04T00:17:22.059Z,54.40
2018-03-04T00:19:50.639Z,53.67
2018-03-04T00:22:19.253Z,56.57
2018-03-04T00:24:48.171Z,57.93
2018-03-04T00:27:16.902Z,62.73
2018-03-04T00:29:45.553Z,53.73
2018-03-04T00:32:14.274Z,53.63
2018-03-04T00:34:42.914Z,62.33
2018-03-04T00:37:11.648Z,61.73
2018-03-04T00:39:41.462Z,63.50
2018-03-04T00:42:10.147Z,60.17
2018-03-04T00:44:38.724Z,56.83
2018-03-04T00:47:07.673Z,57.40
2018-03-04T00:49:37.027Z,60.87
2018-03-04T00:52:05.663Z,67.17
2018-03-04T00:54:35.155Z,57.93
2018-03-04T00:57:04.621Z,59.03
2018-03-04T00:59:33.307Z,63.20
2018-03-04T01:02:02.034Z,90.90
2018-03-04T01:04:31.490Z,89.03
2018-03-04T01:07:00.122Z,82.47
2018-03-04T01:09:29.892Z,71.37
2018-03-04T01:11:58.468Z,85.73
2018-03-04T01:14:27.060Z,99.30
2018-03-04T01:16:55.841Z,83.87
2018-03-04T01:19:24.483Z,91.33
2018-03-04T01:21:53.214Z,88.53
2018-03-04T01:24:22.394Z,76.70
2018-03-04T01:26:51.101Z,73.50
2018-03-04T01:29:19.789Z,98.80
2018-03-04T01:31:48.722Z,94.40
2018-03-04T01:34:18.178Z,74.70
2018-03-04T01:36:46.806Z,62.77
2018-03-04T01:39:16.426Z,65.13
2018-03-04T01:41:44.973Z,82.67
2018-03-04T01:44:13.738Z,94.57
2018-03-04T01:46:43.450Z,88.83
2018-03-04T01:49:12.136Z,74.30
2018-03-04T01:51:52.963Z,90.83
2018-03-04T01:54:22.410Z,54.33
2018-03-04T01:56:51.049Z,58.47
2018-03-04T01:59:19.781Z,58.90
2018-03-04T02:01:48.434Z,55.20
2018-03-04T02:04:17.153Z,45.27
2018-03-04T02:06:46.038Z,49.20
2018-03-04T02:09:14.736Z,53.40
2018-03-04T02:11:43.420Z,50.57
2018-03-04T02:14:12.472Z,51.40
2018-03-04T02:16:41.197Z,56.27
2018-03-04T02:19:09.884Z,55.00
2018-03-04T02:21:39.270Z,55.13
2018-03-04T02:24:07.979Z,52.47
2018-03-04T02:26:36.554Z,56.23
2018-03-04T02:29:05.300Z,61.93
2018-03-04T02:31:34.751Z,66.77
2018-03-04T02:34:03.436Z,59.03
2018-03-04T02:36:32.372Z,69.00
2018-03-04T02:39:01.776Z,58.27
2018-03-04T02:41:31.238Z,59.70
2018-03-04T02:43:59.912Z,59.90
2018-03-04T02:46:28.610Z,62.70
2018-03-04T02:48:57.158Z,63.37
2018-03-04T02:51:25.981Z,64.80
2018-03-04T02:53:54.666Z,62.63
2018-03-04T02:56:23.352Z,70.70
2018-03-04T02:58:52.028Z,59.30
2018-03-04T03:01:20.603Z,61.77
2018-03-04T03:03:49.301Z,62.83
2018-03-04T03:06:18.245Z,68.83
2018-03-04T03:08:47.703Z,76.90
2018-03-04T03:11:16.390Z,72.33
2018-03-04T03:13:45.272Z,70.30
2018-03-04T03:16:13.958Z,66.23
2018-03-04T03:18:42.500Z,71.53
2018-03-04T03:21:11.452Z,71.30
2018-03-04T03:23:40.016Z,67.43
2018-03-04T03:26:08.701Z,72.73
2018-03-04T03:28:37.695Z,75.87
2018-03-04T03:31:06.348Z,68.37
2018-03-04T03:33:35.066Z,70.17
2018-03-04T03:36:03.951Z,74.67
2018-03-04T03:38:32.647Z,72.50
2018-03-04T03:41:01.293Z,69.73
2018-03-04T03:43:30.019Z,65.03
2018-03-04T03:45:58.704Z,68.53
2018-03-04T03:48:27.241Z,73.17
2018-03-04T03:50:56.782Z,67.00
2018-03-04T03:53:25.474Z,71.47
2018-03-04T03:55:54.124Z,70.77
2018-03-04T03:58:23.116Z,73.33
2018-03-04T04:00:51.840Z,75.37
2018-03-04T04:03:20.525Z,73.90
2018-03-04T04:05:49.211Z,73.63
2018-03-04T04:08:17.897Z,70.17
2018-03-04T04:10:46.530Z,80.20
2018-03-04T04:13:16.047Z,78.93
2018-03-04T04:15:44.777Z,76.53
2018-03-04T04:18:13.465Z,79.53
2018-03-04T04:20:42.457Z,85.97
2018-03-04T04:23:11.241Z,81.60
2018-03-04T04:25:39.933Z,85.57
2018-03-04T04:28:08.920Z,80.63
2018-03-04T04:30:37.572Z,76.30
2018-03-04T04:33:06.292Z,76.87
2018-03-04T04:35:35.087Z,77.40
2018-03-04T04:38:03.773Z,74.10
2018-03-04T04:40:32.413Z,75.67
2018-03-04T04:43:01.610Z,73.17
2018-03-04T04:45:30.156Z,85.67
2018-03-04T04:47:59.635Z,78.60
2018-03-04T04:50:28.430Z,81.13
2018-03-04T04:52:57.120Z,81.50
2018-03-04T04:55:25.803Z,87.53
2018-03-04T04:57:54.796Z,86.50
2018-03-04T05:00:23.985Z,78.27
2018-03-04T05:02:52.573Z,87.17
2018-03-04T05:05:21.462Z,91.60
2018-03-04T05:07:50.153Z,90.20
2018-03-04T05:10:18.838Z,82.87
2018-03-04T05:12:47.572Z,78.70
2018-03-04T05:15:17.023Z,81.73
2018-03-04T05:17:45.657Z,90.27
2018-03-04T05:20:15.129Z,103.10
2018-03-04T05:22:43.843Z,105.27
2018-03-04T05:25:13.302Z,86.40
2018-03-04T05:27:42.097Z,86.00
2018-03-04T05:30:10.783Z,76.63
2018-03-04T05:32:39.469Z,70.93
2018-03-04T05:35:08.257Z,72.40
2018-03-04T05:37:36.942Z,73.07
2018-03-04T05:40:05.516Z,75.57
2018-03-04T05:42:34.214Z,80.80
2018-03-04T05:45:02.898Z,77.07
2018-03-04T05:47:31.692Z,88.70
2018-03-04T05:50:00.368Z,97.20
2018-03-04T05:52:29.056Z,113.70
2018-03-04T05:54:57.741Z,109.37
2018-03-04T05:57:26.693Z,110.13
2018-03-04T05:59:55.420Z,124.27
2018-03-04T06:02:24.107Z,148.73
2018-03-04T06:04:53.102Z,79.37
2018-03-04T06:07:21.786Z,110.47
2018-03-04T06:09:50.360Z,90.03
2018-03-04T06:12:23.073Z,101.57
2018-03-04T06:14:51.836Z,83.70
2018-03-04T06:17:20.461Z,71.43
2018-03-04T06:19:49.924Z,67.37
2018-03-04T06:22:18.570Z,59.03
2018-03-04T06:24:47.316Z,84.13
2018-03-04T06:27:16.212Z,86.23
2018-03-04T06:29:44.873Z,110.47
2018-03-04T06:32:13.517Z,177.80
2018-03-04T06:34:42.428Z,73.97
2018-03-04T06:37:11.078Z,61.23
2018-03-04T06:39:40.538Z,80.37
2018-03-04T06:42:09.568Z,56.13
2018-03-04T06:44:39.041Z,68.73
2018-03-04T06:47:07.724Z,55.47
2018-03-04T06:49:36.509Z,62.67
2018-03-04T06:52:05.136Z,111.87
2018-03-04T06:54:34.595Z,78.60
2018-03-04T06:57:03.390Z,62.23
2018-03-04T06:59:32.077Z,58.53
2018-03-04T07:02:00.752Z,55.77
2018-03-04T07:04:29.447Z,56.47
2018-03-04T07:06:58.064Z,55.37
2018-03-04T07:09:27.532Z,56.50
2018-03-04T07:11:56.482Z,55.23
2018-03-04T07:14:25.211Z,61.47
2018-03-04T07:16:53.898Z,63.53
2018-03-04T07:19:22.932Z,65.33
2018-03-04T07:21:52.398Z,83.53
2018-03-04T07:24:20.978Z,71.53
2018-03-04T07:26:49.707Z,85.30
2018-03-04T07:29:19.171Z,63.50
2018-03-04T07:31:47.860Z,61.43
2018-03-04T07:34:16.946Z,66.73
2018-03-04T07:36:45.533Z,92.10
2018-03-04T07:39:14.223Z,107.97
2018-03-04T07:41:44.135Z,83.97
2018-03-04T07:44:12.761Z,147.63
2018-03-04T07:46:42.219Z,139.77
2018-03-04T07:49:11.216Z,143.33
2018-03-04T07:51:39.865Z,140.03
2018-03-04T07:54:08.978Z,125.80
2018-03-04T07:56:37.681Z,117.37
2018-03-04T07:59:06.372Z,114.30
2018-03-04T08:01:35.008Z,97.37
2018-03-04T08:04:04.865Z,93.57
2018-03-04T08:06:33.499Z,68.97
2018-03-04T08:09:02.959Z,68.50
2018-03-04T08:11:31.734Z,74.47
2018-03-04T08:14:00.430Z,73.20
2018-03-04T08:16:29.011Z,71.33
2018-03-04T08:18:57.900Z,75.17
2018-03-04T08:21:26.585Z,72.63
2018-03-04T08:23:55.174Z,77.17
2018-03-04T08:26:41.876Z,109.73
2018-03-04T08:29:10.504Z,115.93
2018-03-04T08:31:39.971Z,108.60
2018-03-04T08:34:08.859Z,95.80
2018-03-04T08:36:37.550Z,107.40
2018-03-04T08:39:06.230Z,87.10
2018-03-04T08:41:35.120Z,97.93
2018-03-04T08:44:03.766Z,296.47
2018-03-04T08:46:32.496Z,664.53
2018-03-04T08:49:01.287Z,433.40
2018-03-04T08:51:29.968Z,530.57
2018-03-04T08:53:58.659Z,813.90
2018-03-04T08:56:27.445Z,505.37
2018-03-04T08:58:56.080Z,547.60
2018-03-04T09:01:25.528Z,247.93
2018-03-04T09:03:54.521Z,456.33
2018-03-04T09:06:23.109Z,375.17
2018-03-04T09:08:51.794Z,373.57
2018-03-04T09:11:20.579Z,591.63
2018-03-04T09:13:49.168Z,363.00
2018-03-04T09:16:17.884Z,562.83
2018-03-04T09:18:47.561Z,172.93
2018-03-04T09:21:16.244Z,154.00
2018-03-04T09:23:44.834Z,141.00
2018-03-04T09:26:13.827Z,124.73
2018-03-04T09:28:43.586Z,114.40
2018-03-04T09:31:13.039Z,122.77
2018-03-04T09:33:42.032Z,142.80
2018-03-04T09:36:10.718Z,150.07
2018-03-04T09:38:39.361Z,156.90
2018-03-04T09:41:08.090Z,136.47
2018-03-04T09:43:36.776Z,138.03
2018-03-04T09:46:05.353Z,116.07
2018-03-04T09:48:34.042Z,111.30
2018-03-04T09:51:02.626Z,114.57
2018-03-04T09:53:31.212Z,102.10
2018-03-04T09:55:59.997Z,99.07
2018-03-04T09:58:28.682Z,158.57
2018-03-04T10:00:57.348Z,101.67
2018-03-04T10:03:26.360Z,137.23
2018-03-04T10:05:55.210Z,221.67
2018-03-04T10:08:23.942Z,163.77
2018-03-04T10:10:52.938Z,88.13
2018-03-04T10:13:21.620Z,71.63
2018-03-04T10:15:50.256Z,87.37
2018-03-04T10:18:20.012Z,78.53
2018-03-04T10:20:48.568Z,107.67
2018-03-04T10:23:17.287Z,119.13
2018-03-04T10:25:46.068Z,118.90
2018-03-04T10:28:14.722Z,69.13
2018-03-04T10:30:43.441Z,62.73
2018-03-04T10:33:12.128Z,64.43
2018-03-04T10:35:40.776Z,67.40
2018-03-04T10:38:09.499Z,75.30
2018-03-04T10:40:38.293Z,93.87
2018-03-04T10:43:06.979Z,83.67
2018-03-04T10:45:35.620Z,80.23
2018-03-04T10:48:04.658Z,77.83
2018-03-04T10:50:33.217Z,102.27
2018-03-04T10:53:01.921Z,84.17
2018-03-04T10:55:30.814Z,65.43
2018-03-04T10:57:59.489Z,65.03
2018-03-04T11:00:28.234Z,56.50
2018-03-04T11:02:59.845Z,55.43
2018-03-04T11:05:28.425Z,54.77
2018-03-04T11:07:57.109Z,54.33
2018-03-04T11:10:26.059Z,59.63
2018-03-04T11:12:54.786Z,65.33
2018-03-04T11:15:23.389Z,53.67
2018-03-04T11:17:52.254Z,47.73
2018-03-04T11:20:20.948Z,48.47
2018-03-04T11:22:49.640Z,51.17
2018-03-04T11:25:18.486Z,50.23
2018-03-04T11:27:47.209Z,45.40
2018-03-04T11:30:15.895Z,51.57
2018-03-04T11:32:45.766Z,48.90
2018-03-04T11:35:14.495Z,49.90
2018-03-04T11:37:43.126Z,51.60
2018-03-04T11:40:12.744Z,56.83
2018-03-04T11:42:41.376Z,51.07
2018-03-04T11:45:09.962Z,53.43
2018-03-04T11:47:38.699Z,56.90
2018-03-04T11:50:07.433Z,51.63
2018-03-04T11:52:36.059Z,52.43
2018-03-04T11:55:05.524Z,52.90
2018-03-04T11:57:34.204Z,56.97
2018-03-04T12:00:02.893Z,54.97
2018-03-04T12:02:31.627Z,51.00
2018-03-04T12:05:01.085Z,60.17
2018-03-04T12:07:29.770Z,60.70
2018-03-04T12:09:58.763Z,59.33
2018-03-04T12:12:27.351Z,60.37
2018-03-04T12:14:55.972Z,58.27
2018-03-04T12:17:25.689Z,57.57
2018-03-04T12:19:55.141Z,57.80
2018-03-04T12:22:23.826Z,60.40
2018-03-04T12:24:53.029Z,55.67
2018-03-04T12:27:21.714Z,54.70
2018-03-04T12:29:50.295Z,52.30
2018-03-04T12:32:19.800Z,52.00
2018-03-04T12:34:48.484Z,52.60
2018-03-04T12:37:17.171Z,53.30
2018-03-04T12:39:45.851Z,67.20
2018-03-04T12:42:14.543Z,67.70
2018-03-04T12:44:43.188Z,82.07
2018-03-04T12:47:12.221Z,91.43
2018-03-04T12:49:40.874Z,98.53
2018-03-04T12:52:09.604Z,93.03
2018-03-04T12:54:38.328Z,82.33
2018-03-04T12:57:07.788Z,78.70
2018-03-04T12:59:36.473Z,71.50
2018-03-04T13:02:05.258Z,62.97
2018-03-04T13:04:33.903Z,68.57
2018-03-04T13:07:02.529Z,66.20
2018-03-04T13:09:31.315Z,67.10
2018-03-04T13:12:00.028Z,66.57
2018-03-04T13:14:28.695Z,61.47
2018-03-04T13:16:57.373Z,67.43
2018-03-04T13:19:26.059Z,67.07
2018-03-04T13:21:55.473Z,62.07
2018-03-04T13:24:24.952Z,61.13
2018-03-04T13:26:53.620Z,65.53
2018-03-04T13:29:22.306Z,62.23
2018-03-04T13:31:51.273Z,54.17
2018-03-04T13:34:20.028Z,58.10
2018-03-04T13:36:49.495Z,47.60
2018-03-04T13:39:18.376Z,47.47
2018-03-04T13:41:47.065Z,50.90
2018-03-04T13:44:15.748Z,43.47
2018-03-04T13:46:44.580Z,43.13
2018-03-04T13:49:14.042Z,44.67
2018-03-04T13:51:42.727Z,45.73
2018-03-04T13:54:11.455Z,44.20
2018-03-04T13:56:40.923Z,41.60
2018-03-04T13:59:09.503Z,46.37
2018-03-04T14:01:38.236Z,49.17
2018-03-04T14:04:07.692Z,48.83
2018-03-04T14:06:42.269Z,69.10
2018-03-04T14:09:11.724Z,206.80
2018-03-04T14:11:40.411Z,97.33
2018-03-04T14:14:09.096Z,89.73
2018-03-04T14:16:37.718Z,102.17
2018-03-04T14:19:07.188Z,64.70
2018-03-04T14:21:35.865Z,37.87
2018-03-04T14:24:04.555Z,50.97
2018-03-04T14:26:33.189Z,49.87
2018-03-04T14:29:02.637Z,36.83
2018-03-04T14:31:31.333Z,46.87
2018-03-04T14:33:59.961Z,40.47
2018-03-04T14:36:30.084Z,49.63
2018-03-04T14:38:58.821Z,44.70
2018-03-04T14:41:27.504Z,60.23
2018-03-04T14:43:56.298Z,49.70
2018-03-04T14:46:24.984Z,61.50
2018-03-04T14:48:54.340Z,60.70
2018-03-04T14:51:23.114Z,68.20
2018-03-04T14:53:52.578Z,50.30
2018-03-04T14:56:21.197Z,49.40
2018-03-04T14:58:50.718Z,43.73
2018-03-04T15:01:19.449Z,45.83
2018-03-04T15:03:48.078Z,43.73
2018-03-04T15:06:17.856Z,49.83
2018-03-04T15:08:46.531Z,46.87
2018-03-04T15:11:15.152Z,44.50
2018-03-04T15:13:44.621Z,48.63
2018-03-04T15:16:13.207Z,57.37
2018-03-04T15:18:41.893Z,53.23
2018-03-04T15:21:10.627Z,49.30
2018-03-04T15:23:40.078Z,44.63
2018-03-04T15:26:08.664Z,52.77
2018-03-04T15:28:37.450Z,49.43
2018-03-04T15:31:06.135Z,52.27
2018-03-04T15:33:34.766Z,47.43
2018-03-04T15:36:04.384Z,45.80
2018-03-04T15:38:33.114Z,51.87
2018-03-04T15:41:01.745Z,48.43
2018-03-04T15:43:31.158Z,51.67
2018-03-04T15:46:00.610Z,47.37
2018-03-04T15:48:29.295Z,48.07
2018-03-04T15:50:58.288Z,48.83
2018-03-04T15:53:26.932Z,51.97
2018-03-04T15:55:55.661Z,53.80
2018-03-04T15:58:24.718Z,49.63
2018-03-04T16:00:53.440Z,52.60
2018-03-04T16:03:22.124Z,57.87
2018-03-04T16:05:50.919Z,50.93
2018-03-04T16:08:19.612Z,49.37
2018-03-04T16:10:48.162Z,42.03
2018-03-04T16:13:17.176Z,47.43
2018-03-04T16:15:45.818Z,44.57
2018-03-04T16:18:14.548Z,48.37
2018-03-04T16:20:43.341Z,49.50
2018-03-04T16:23:12.028Z,50.70
2018-03-04T16:25:40.601Z,45.40
2018-03-04T16:28:09.554Z,54.47
2018-03-04T16:30:39.092Z,54.70
2018-03-04T16:33:07.791Z,47.70
2018-03-04T16:35:36.784Z,53.60
2018-03-04T16:38:05.361Z,53.90
2018-03-04T16:40:33.940Z,52.73
2018-03-04T16:43:03.135Z,47.83
2018-03-04T16:45:31.834Z,59.23
2018-03-04T16:48:00.413Z,52.60
2018-03-04T16:50:29.263Z,60.47
2018-03-04T16:52:58.001Z,60.03
2018-03-04T16:55:26.567Z,60.43
2018-03-04T16:57:55.572Z,71.83
2018-03-04T17:00:24.208Z,69.90
2018-03-04T17:02:52.942Z,67.67
2018-03-04T17:05:21.738Z,98.80
2018-03-04T17:07:50.522Z,148.87
2018-03-04T17:10:19.103Z,87.17
2018-03-04T17:12:47.893Z,124.27
2018-03-04T17:15:16.535Z,223.03
2018-03-04T17:17:45.265Z,118.20
2018-03-04T17:20:15.000Z,125.07
2018-03-04T17:22:43.726Z,110.80
2018-03-04T17:25:12.360Z,112.90
2018-03-04T17:27:41.099Z,93.20
2018-03-04T17:30:09.644Z,92.60
2018-03-04T17:32:38.369Z,114.40
2018-03-04T17:35:07.156Z,80.30
2018-03-04T17:37:35.794Z,90.73
2018-03-04T17:40:05.190Z,68.07
2018-03-04T17:42:34.659Z,89.43
2018-03-04T17:45:03.351Z,63.80
2018-03-04T17:47:32.118Z,66.83
2018-03-04T17:50:00.909Z,63.40
2018-03-04T17:52:29.550Z,62.97
2018-03-04T17:54:59.000Z,54.07
2018-03-04T17:57:27.783Z,61.63
2018-03-04T17:59:56.432Z,53.17
2018-03-04T18:02:25.156Z,61.80
2018-03-04T18:04:53.842Z,60.27
2018-03-04T18:07:22.527Z,54.37
2018-03-04T18:09:51.178Z,53.27
2018-03-04T18:12:20.171Z,53.97
2018-03-04T18:14:48.892Z,53.20
2018-03-04T18:17:17.532Z,49.77
2018-03-04T18:19:46.524Z,51.73
2018-03-04T18:22:15.256Z,49.37
2018-03-04T18:24:43.843Z,53.80
2018-03-04T18:27:12.440Z,66.57
2018-03-04T18:29:41.894Z,43.13
2018-03-04T18:32:10.570Z,47.53
2018-03-04T18:34:39.302Z,63.20
2018-03-04T18:37:07.952Z,45.03
2018-03-04T18:39:37.391Z,35.87
2018-03-04T18:42:06.199Z,36.07
2018-03-04T18:44:35.673Z,35.43
2018-03-04T18:47:08.084Z,37.67
2018-03-04T18:49:37.112Z,36.87
2018-03-04T18:52:05.839Z,36.93
2018-03-04T18:54:34.526Z,62.93
2018-03-04T18:57:03.663Z,121.47
2018-03-04T18:59:33.126Z,107.90
2018-03-04T19:02:01.750Z,82.00
2018-03-04T19:04:31.215Z,67.33
2018-03-04T19:06:59.863Z,66.87
2018-03-04T19:09:28.528Z,56.13
2018-03-04T19:11:58.289Z,74.10
2018-03-04T19:14:26.990Z,48.37
2018-03-04T19:16:55.629Z,41.87
2018-03-04T19:19:24.401Z,52.23
2018-03-04T19:21:53.755Z,46.47
2018-03-04T19:24:22.385Z,41.00
2018-03-04T19:26:52.049Z,41.03
2018-03-04T19:29:20.747Z,36.17
2018-03-04T19:31:49.420Z,40.00
2018-03-04T19:34:18.205Z,39.17
2018-03-04T19:36:46.891Z,39.03
2018-03-04T19:39:15.542Z,36.53
2018-03-04T19:41:44.410Z,39.67
2018-03-04T19:44:13.125Z,35.43
2018-03-04T19:46:41.767Z,31.20
2018-03-04T19:49:10.498Z,33.20
2018-03-04T19:51:39.044Z,33.70
2018-03-04T19:54:07.761Z,33.53
2018-03-04T19:56:36.617Z,34.73
2018-03-04T19:59:06.053Z,36.03
2018-03-04T20:01:34.737Z,32.00
2018-03-04T20:04:03.694Z,35.33
2018-03-04T20:06:32.419Z,32.93
2018-03-04T20:09:01.103Z,37.10
2018-03-04T20:11:29.846Z,30.87
2018-03-04T20:13:59.299Z,34.20
2018-03-04T20:16:27.984Z,36.40
2018-03-04T20:18:56.668Z,36.17
2018-03-04T20:21:25.358Z,35.37
2018-03-04T20:23:54.041Z,44.67
2018-03-04T20:26:22.998Z,43.33
2018-03-04T20:28:51.725Z,35.73
2018-03-04T20:31:20.363Z,36.23
2018-03-04T20:33:49.455Z,41.33
2018-03-04T20:36:18.184Z,36.97
2018-03-04T20:38:46.816Z,39.33
2018-03-04T20:41:16.284Z,38.93
2018-03-04T20:43:44.949Z,48.07
2018-03-04T20:46:13.592Z,49.93
2018-03-04T20:48:43.456Z,49.77
2018-03-04T20:51:12.142Z,45.07
2018-03-04T20:53:40.827Z,60.70
2018-03-04T20:56:09.563Z,145.40
2018-03-04T20:58:39.022Z,65.03
2018-03-04T21:01:07.709Z,48.13
2018-03-04T21:03:36.643Z,48.17
2018-03-04T21:06:06.061Z,38.90
2018-03-04T21:08:34.786Z,64.03
2018-03-04T21:11:03.779Z,80.87
2018-03-04T21:13:32.364Z,98.50
2018-03-04T21:16:01.057Z,67.97
2018-03-04T21:18:30.310Z,44.73
2018-03-04T21:20:59.750Z,50.23
2018-03-04T21:23:28.482Z,45.20
2018-03-04T21:25:57.953Z,45.50
2018-03-04T21:28:26.516Z,52.53
2018-03-04T21:30:55.213Z,52.00
2018-03-04T21:33:24.004Z,58.80
2018-03-04T21:35:53.514Z,61.83
2018-03-04T21:38:23.063Z,82.50
2018-03-04T21:40:52.787Z,87.93
2018-03-04T21:43:21.512Z,68.97
2018-03-04T21:45:50.145Z,78.47
2018-03-04T21:48:19.610Z,87.90
2018-03-04T21:50:48.281Z,52.07
2018-03-04T21:53:16.967Z,42.30
2018-03-04T21:55:46.071Z,63.73
2018-03-04T21:58:14.759Z,38.03
2018-03-04T22:00:43.423Z,44.23
2018-03-04T22:03:12.117Z,40.07
2018-03-04T22:05:40.800Z,39.90
2018-03-04T22:08:09.348Z,34.47
2018-03-04T22:10:38.285Z,31.83
2018-03-04T22:13:06.971Z,36.33
2018-03-04T22:15:35.657Z,39.70
2018-03-04T22:18:04.352Z,35.20
2018-03-04T22:20:33.126Z,36.13
2018-03-04T22:23:01.813Z,33.73
2018-03-04T22:25:31.015Z,35.70
2018-03-04T22:27:59.649Z,41.07
2018-03-04T22:30:29.100Z,35.97
2018-03-04T22:32:57.893Z,30.37
2018-03-04T22:35:26.469Z,32.30
2018-03-04T22:37:55.058Z,32.93
2018-03-04T22:40:23.842Z,30.43
2018-03-04T22:42:52.532Z,32.43
2018-03-04T22:45:21.265Z,25.80
2018-03-04T22:47:50.820Z,27.17
2018-03-04T22:50:19.506Z,28.17
2018-03-04T22:52:48.151Z,27.57
2018-03-04T22:55:16.878Z,28.33
2018-03-04T22:57:45.569Z,29.13
2018-03-04T23:00:14.151Z,27.13
2018-03-04T23:02:43.148Z,28.77
2018-03-04T23:05:11.720Z,28.27
2018-03-04T23:07:40.416Z,31.70
2018-03-04T23:10:09.156Z,34.10
2018-03-04T23:12:37.889Z,27.97
2018-03-04T23:15:06.536Z,25.30
2018-03-04T23:17:35.359Z,28.97
2018-03-04T23:20:04.158Z,25.03
2018-03-04T23:22:32.939Z,25.00
2018-03-04T23:25:01.723Z,25.70
2018-03-04T23:27:30.410Z,22.70
2018-03-04T23:29:59.044Z,25.70
2018-03-04T23:32:28.705Z,21.10
2018-03-04T23:34:57.252Z,22.73
2018-03-04T23:37:25.975Z,22.03
2018-03-04T23:39:54.660Z,22.13
2018-03-04T23:42:23.349Z,23.53
2018-03-04T23:44:52.033Z,21.40
2018-03-04T23:47:21.693Z,27.73
2018-03-04T23:49:50.425Z,23.53
2018-03-04T23:52:19.055Z,20.50
2018-03-04T23:54:48.673Z,23.43
2018-03-04T23:57:17.404Z,25.37
2018-03-04T23:59:46.058Z,23.07
